Time;durP1;ratioP1;P1;durP2;ratioP2;P2;SDS_P1;SDS_P2;PMS_P1;PMS_P2;Temp;Humidity;BMP_temperature;BMP_pressure;BME280_temperature;BME280_humidity;BME280_pressure;Samples;Min_cycle;Max_cycle;Signal;HPM_P1;HPM_P2
2022/04/08 00:01:00;;;;;;;2.80;1.30;;;;;;;;;;5054027;28;20401;-74
2022/04/08 00:03:26;;;;;;;6.20;1.67;;;;;;;;;;5053896;28;20526;-75
2022/04/08 00:05:52;;;;;;;4.10;1.00;;;;;;;;;;5054058;28;20471;-74
2022/04/08 00:08:19;;;;;;;5.57;1.67;;;;;;;;;;5052661;28;20467;-75
2022/04/08 00:10:45;;;;;;;4.50;1.23;;;;;;;;;;5053880;28;20425;-75
2022/04/08 00:13:11;;;;;;;3.20;1.03;;;;;;;;;;5053771;28;20796;-75
2022/04/08 00:15:38;;;;;;;1.57;1.00;;;;;;;;;;5053779;28;20414;-73
2022/04/08 00:18:07;;;;;;;2.97;1.17;;;;;;;;;;5053744;28;20507;-74
2022/04/08 00:20:34;;;;;;;4.83;1.10;;;;;;;;;;5053773;28;20414;-74
2022/04/08 00:23:03;;;;;;;3.67;1.60;;;;;;;;;;5053741;28;20409;-73
2022/04/08 00:25:29;;;;;;;4.47;1.40;;;;;;;;;;5053634;28;20911;-74
2022/04/08 00:27:55;;;;;;;3.00;2.13;;;;;;;;;;5053602;28;20406;-72
2022/04/08 00:30:21;;;;;;;1.87;1.40;;;;;;;;;;5053387;28;20533;-73
2022/04/08 00:32:47;;;;;;;3.13;1.20;;;;;;;;;;5052651;28;20780;-72
2022/04/08 00:35:13;;;;;;;4.13;1.30;;;;;;;;;;5053497;28;20402;-75
2022/04/08 00:37:40;;;;;;;3.60;1.40;;;;;;;;;;5053424;28;20398;-67
2022/04/08 00:40:07;;;;;;;3.17;1.50;;;;;;;;;;5053096;28;20520;-73
2022/04/08 00:42:33;;;;;;;5.40;1.30;;;;;;;;;;5053474;28;20393;-71
2022/04/08 00:44:59;;;;;;;1.73;1.20;;;;;;;;;;5053280;28;20422;-73
2022/04/08 00:47:25;;;;;;;4.33;1.80;;;;;;;;;;5053223;28;20418;-76
2022/04/08 00:49:52;;;;;;;2.60;1.43;;;;;;;;;;5051855;28;20469;-74
2022/04/08 00:52:18;;;;;;;2.50;1.03;;;;;;;;;;5053193;28;20401;-72
2022/04/08 00:54:45;;;;;;;2.77;1.30;;;;;;;;;;5053065;28;20504;-68
2022/04/08 00:57:11;;;;;;;5.30;1.37;;;;;;;;;;5053078;28;20508;-74
2022/04/08 00:59:38;;;;;;;8.87;1.80;;;;;;;;;;5052822;28;20775;-74
2022/04/08 01:02:04;;;;;;;8.00;1.60;;;;;;;;;;5053132;28;20409;-75
2022/04/08 01:04:30;;;;;;;5.07;1.33;;;;;;;;;;5052761;28;20458;-75
2022/04/08 01:06:56;;;;;;;3.83;1.37;;;;;;;;;;5052882;28;20413;-75
2022/04/08 01:09:23;;;;;;;6.50;1.10;;;;;;;;;;5052927;28;20625;-73
2022/04/08 01:11:49;;;;;;;7.60;1.57;;;;;;;;;;5052943;28;20767;-70
2022/04/08 01:14:16;;;;;;;3.57;1.30;;;;;;;;;;5052960;28;20409;-73
2022/04/08 01:16:43;;;;;;;2.57;1.23;;;;;;;;;;5052994;28;20458;-74
2022/04/08 01:19:09;;;;;;;5.47;1.50;;;;;;;;;;5052870;28;20756;-74
2022/04/08 01:21:35;;;;;;;3.00;1.53;;;;;;;;;;5052941;28;20451;-73
2022/04/08 01:24:03;;;;;;;2.87;1.20;;;;;;;;;;5052763;28;20805;-74
2022/04/08 01:26:29;;;;;;;2.30;1.13;;;;;;;;;;5052808;28;20500;-63
2022/04/08 01:28:56;;;;;;;1.93;1.03;;;;;;;;;;5052768;28;20449;-75
2022/04/08 01:31:25;;;;;;;4.80;1.50;;;;;;;;;;5052777;28;20421;-73
2022/04/08 01:33:52;;;;;;;3.67;1.10;;;;;;;;;;5052837;28;20429;-71
2022/04/08 01:36:18;;;;;;;3.03;1.70;;;;;;;;;;5052868;28;20811;-73
2022/04/08 01:38:44;;;;;;;3.67;1.10;;;;;;;;;;5052717;28;20405;-74
2022/04/08 01:41:10;;;;;;;4.20;1.23;;;;;;;;;;5052620;28;20409;-73
2022/04/08 01:43:36;;;;;;;3.40;1.20;;;;;;;;;;5052738;28;20922;-74
2022/04/08 01:46:02;;;;;;;3.70;1.53;;;;;;;;;;5052598;28;20402;-74
2022/04/08 01:48:28;;;;;;;5.17;1.63;;;;;;;;;;5052423;28;20861;-74
2022/04/08 01:50:54;;;;;;;5.83;1.70;;;;;;;;;;5052572;28;20405;-75
2022/04/08 01:53:20;;;;;;;2.83;1.17;;;;;;;;;;5052631;28;20441;-74
2022/04/08 01:55:46;;;;;;;4.37;1.40;;;;;;;;;;5052409;28;20429;-73
2022/04/08 01:58:12;;;;;;;5.10;1.77;;;;;;;;;;5052557;28;20452;-75
2022/04/08 02:00:38;;;;;;;5.57;1.83;;;;;;;;;;5052420;28;20397;-74
2022/04/08 02:03:04;;;;;;;4.13;1.03;;;;;;;;;;5052228;28;20414;-71
2022/04/08 02:05:32;;;;;;;4.00;1.40;;;;;;;;;;5051141;28;20421;-74
2022/04/08 02:07:58;;;;;;;6.33;1.40;;;;;;;;;;5052412;28;20881;-75
2022/04/08 02:10:25;;;;;;;3.90;1.60;;;;;;;;;;5052428;28;20467;-74
2022/04/08 02:12:52;;;;;;;5.87;1.77;;;;;;;;;;5052456;28;20880;-75
2022/04/08 02:15:19;;;;;;;3.47;1.43;;;;;;;;;;5052347;28;20412;-71
2022/04/08 02:17:45;;;;;;;1.97;1.20;;;;;;;;;;5052472;28;20405;-74
2022/04/08 02:20:11;;;;;;;5.20;1.53;;;;;;;;;;5055824;28;20408;-70
2022/04/08 02:22:37;;;;;;;2.50;1.50;;;;;;;;;;5055966;28;20409;-75
2022/04/08 02:25:05;;;;;;;3.93;1.40;;;;;;;;;;5055788;28;20424;-74
2022/04/08 02:27:32;;;;;;;3.30;1.50;;;;;;;;;;5055815;28;20425;-74
2022/04/08 02:29:59;;;;;;;2.70;1.30;;;;;;;;;;5054318;28;20480;-72
2022/04/08 02:32:25;;;;;;;3.50;1.37;;;;;;;;;;5055782;28;20454;-75
2022/04/08 02:34:52;;;;;;;4.03;1.63;;;;;;;;;;5055736;28;20769;-75
2022/04/08 02:37:18;;;;;;;4.27;1.50;;;;;;;;;;5055634;28;20888;-74
2022/04/08 02:39:44;;;;;;;3.37;1.53;;;;;;;;;;5055295;28;20422;-75
2022/04/08 02:42:10;;;;;;;5.00;1.50;;;;;;;;;;5055595;28;20438;-70
2022/04/08 02:44:36;;;;;;;2.93;1.13;;;;;;;;;;5055703;28;20410;-75
2022/04/08 02:47:02;;;;;;;5.47;1.77;;;;;;;;;;5055646;28;20393;-76
2022/04/08 02:49:29;;;;;;;6.00;1.80;;;;;;;;;;5055403;28;20465;-75
2022/04/08 02:51:55;;;;;;;2.97;1.27;;;;;;;;;;5055452;28;20556;-75
2022/04/08 02:54:21;;;;;;;2.60;1.10;;;;;;;;;;5055476;28;20449;-76
2022/04/08 02:56:47;;;;;;;3.87;1.30;;;;;;;;;;5055293;28;20940;-75
2022/04/08 02:59:13;;;;;;;5.97;1.80;;;;;;;;;;5055112;28;20423;-75
2022/04/08 03:01:39;;;;;;;6.63;1.10;;;;;;;;;;5055395;28;20404;-69
2022/04/08 03:04:06;;;;;;;1.80;1.20;;;;;;;;;;5055006;28;20523;-75
2022/04/08 03:06:33;;;;;;;2.13;1.20;;;;;;;;;;5055168;28;20939;-76
2022/04/08 03:08:59;;;;;;;3.50;1.23;;;;;;;;;;5053842;28;21060;-76
2022/04/08 03:11:25;;;;;;;2.27;1.17;;;;;;;;;;5055115;28;20410;-76
2022/04/08 03:13:51;;;;;;;6.10;1.63;;;;;;;;;;5054972;28;20415;-76
2022/04/08 03:16:17;;;;;;;5.93;1.60;;;;;;;;;;5054993;28;20410;-66
2022/04/08 03:18:46;;;;;;;4.90;1.27;;;;;;;;;;5053234;28;20500;-73
2022/04/08 03:21:12;;;;;;;4.17;1.10;;;;;;;;;;5054855;28;20414;-74
2022/04/08 03:23:39;;;;;;;4.10;1.60;;;;;;;;;;5054890;28;20421;-76
2022/04/08 03:26:05;;;;;;;3.40;1.57;;;;;;;;;;5054652;28;20523;-74
2022/04/08 03:28:31;;;;;;;3.90;1.10;;;;;;;;;;5054606;28;20453;-73
2022/04/08 03:30:58;;;;;;;2.83;1.07;;;;;;;;;;5054438;28;20418;-75
2022/04/08 03:33:24;;;;;;;6.53;1.33;;;;;;;;;;5054618;28;20470;-73
2022/04/08 03:35:50;;;;;;;4.87;1.47;;;;;;;;;;5054511;28;20520;-74
2022/04/08 03:38:16;;;;;;;3.40;1.40;;;;;;;;;;5054490;28;20424;-74
2022/04/08 03:40:42;;;;;;;2.40;1.23;;;;;;;;;;5054519;28;20758;-74
2022/04/08 03:43:08;;;;;;;4.13;1.50;;;;;;;;;;5054472;28;20807;-73
2022/04/08 03:45:34;;;;;;;2.97;1.40;;;;;;;;;;5054441;28;20428;-75
2022/04/08 03:48:00;;;;;;;2.20;1.50;;;;;;;;;;5054321;28;20553;-69
2022/04/08 03:50:26;;;;;;;5.57;1.80;;;;;;;;;;5054244;28;20469;-73
2022/04/08 03:52:52;;;;;;;2.70;1.27;;;;;;;;;;5054334;28;20409;-75
2022/04/08 03:55:18;;;;;;;4.73;1.50;;;;;;;;;;5054089;28;20406;-75
2022/04/08 03:57:44;;;;;;;3.23;1.10;;;;;;;;;;5054051;28;20500;-72
2022/04/08 04:00:10;;;;;;;4.83;1.30;;;;;;;;;;5054153;28;20414;-74
2022/04/08 04:02:36;;;;;;;1.33;1.10;;;;;;;;;;5053961;28;20404;-69
2022/04/08 04:05:03;;;;;;;3.70;1.40;;;;;;;;;;5053913;28;20461;-68
2022/04/08 04:07:29;;;;;;;3.33;1.30;;;;;;;;;;5054018;28;20396;-73
2022/04/08 04:09:56;;;;;;;2.40;0.97;;;;;;;;;;5053822;28;20516;-74
2022/04/08 04:12:22;;;;;;;7.30;1.27;;;;;;;;;;5053892;28;20494;-75
2022/04/08 04:14:48;;;;;;;5.50;1.40;;;;;;;;;;5053767;28;20450;-74
2022/04/08 04:17:14;;;;;;;4.57;2.00;;;;;;;;;;5053768;28;20410;-75
2022/04/08 04:19:40;;;;;;;5.00;1.30;;;;;;;;;;5053654;28;20402;-73
2022/04/08 04:22:06;;;;;;;7.40;1.50;;;;;;;;;;5053729;28;20442;-73
2022/04/08 04:24:32;;;;;;;4.57;1.10;;;;;;;;;;5052290;28;20507;-62
2022/04/08 04:26:58;;;;;;;5.30;1.37;;;;;;;;;;5053387;28;20433;-68
2022/04/08 04:29:24;;;;;;;7.50;1.63;;;;;;;;;;5053377;28;20556;-71
2022/04/08 04:31:50;;;;;;;4.03;1.37;;;;;;;;;;5053488;28;20414;-74
2022/04/08 04:34:16;;;;;;;9.17;1.90;;;;;;;;;;5053479;28;20496;-70
2022/04/08 04:36:42;;;;;;;2.80;1.30;;;;;;;;;;5053331;28;20809;-76
2022/04/08 04:39:08;;;;;;;3.40;1.70;;;;;;;;;;5053392;28;20420;-75
2022/04/08 04:41:34;;;;;;;5.20;1.37;;;;;;;;;;5052899;28;20409;-73
2022/04/08 04:44:00;;;;;;;5.50;1.63;;;;;;;;;;5053433;28;20501;-64
2022/04/08 04:46:26;;;;;;;2.90;1.30;;;;;;;;;;5053322;28;20834;-70
2022/04/08 04:48:52;;;;;;;2.40;1.33;;;;;;;;;;5053212;28;20986;-74
2022/04/08 04:51:18;;;;;;;3.80;1.93;;;;;;;;;;5053101;28;20425;-76
2022/04/08 04:53:44;;;;;;;8.00;1.50;;;;;;;;;;5051873;28;20406;-74
2022/04/08 04:56:10;;;;;;;2.07;1.23;;;;;;;;;;5051744;28;20440;-75
2022/04/08 04:58:36;;;;;;;2.60;1.10;;;;;;;;;;5052889;28;20764;-77
2022/04/08 05:01:02;;;;;;;5.67;1.63;;;;;;;;;;5052985;28;20422;-67
2022/04/08 05:03:28;;;;;;;1.97;1.67;;;;;;;;;;5052862;28;20966;-75
2022/04/08 05:05:54;;;;;;;2.77;1.77;;;;;;;;;;5053095;28;20417;-71
2022/04/08 05:08:20;;;;;;;3.27;1.33;;;;;;;;;;5051585;28;20402;-76
2022/04/08 05:10:47;;;;;;;6.93;1.23;;;;;;;;;;5053024;28;20413;-75
2022/04/08 05:13:13;;;;;;;2.80;1.30;;;;;;;;;;5053178;28;20497;-77
2022/04/08 05:15:42;;;;;;;3.53;1.40;;;;;;;;;;5051682;28;20409;-73
2022/04/08 05:18:09;;;;;;;6.23;1.50;;;;;;;;;;5052896;28;20394;-71
2022/04/08 05:20:35;;;;;;;3.10;1.30;;;;;;;;;;5052873;28;20404;-77
2022/04/08 05:23:01;;;;;;;6.17;1.57;;;;;;;;;;5052947;28;20492;-74
2022/04/08 05:25:27;;;;;;;3.77;1.43;;;;;;;;;;5052767;28;20417;-78
2022/04/08 05:27:54;;;;;;;5.37;1.70;;;;;;;;;;5052721;28;20404;-75
2022/04/08 05:30:20;;;;;;;3.93;1.30;;;;;;;;;;5052552;28;20460;-75
2022/04/08 05:32:47;;;;;;;3.97;1.30;;;;;;;;;;5052695;28;20416;-75
2022/04/08 05:35:17;;;;;;;2.60;1.40;;;;;;;;;;5052691;28;20405;-76
2022/04/08 05:37:44;;;;;;;4.20;1.70;;;;;;;;;;5052642;28;20405;-76
2022/04/08 05:40:13;;;;;;;3.17;1.20;;;;;;;;;;5052557;28;20405;-76
2022/04/08 05:42:39;;;;;;;8.87;1.80;;;;;;;;;;5052693;28;20417;-75
2022/04/08 05:45:09;;;;;;;3.17;1.50;;;;;;;;;;5052435;28;20456;-74
2022/04/08 05:47:35;;;;;;;1.50;1.20;;;;;;;;;;5052566;28;20433;-75
2022/04/08 05:50:01;;;;;;;3.53;1.47;;;;;;;;;;5052318;28;21010;-64
2022/04/08 05:52:27;;;;;;;6.93;1.40;;;;;;;;;;5052481;28;21042;-77
2022/04/08 05:54:53;;;;;;;5.27;1.60;;;;;;;;;;5056097;28;20493;-76
2022/04/08 05:57:19;;;;;;;3.80;1.40;;;;;;;;;;5056296;28;20446;-70
2022/04/08 05:59:46;;;;;;;2.70;1.90;;;;;;;;;;5056254;28;20875;-75
2022/04/08 06:02:12;;;;;;;5.87;1.67;;;;;;;;;;5055002;28;20410;-74
2022/04/08 06:04:38;;;;;;;6.40;1.70;;;;;;;;;;5056219;28;20480;-75
2022/04/08 06:07:04;;;;;;;6.43;1.50;;;;;;;;;;5056180;28;20410;-73
2022/04/08 06:09:30;;;;;;;4.63;1.43;;;;;;;;;;5056094;28;20567;-73
2022/04/08 06:11:56;;;;;;;2.80;1.10;;;;;;;;;;5056205;28;20827;-73
2022/04/08 06:14:22;;;;;;;3.90;1.63;;;;;;;;;;5054733;28;20500;-64
2022/04/08 06:16:48;;;;;;;4.23;1.57;;;;;;;;;;5055912;28;20443;-72
2022/04/08 06:19:14;;;;;;;2.80;1.03;;;;;;;;;;5056083;28;20421;-74
2022/04/08 06:21:40;;;;;;;4.87;1.20;;;;;;;;;;5054676;28;20410;-73
2022/04/08 06:24:06;;;;;;;3.27;1.37;;;;;;;;;;5054773;28;20418;-75
2022/04/08 06:26:34;;;;;;;3.43;1.33;;;;;;;;;;5055715;28;20493;-74
2022/04/08 06:29:00;;;;;;;6.77;1.50;;;;;;;;;;5055727;28;20465;-70
2022/04/08 06:31:29;;;;;;;3.40;1.10;;;;;;;;;;5055791;28;20447;-72
2022/04/08 06:33:55;;;;;;;5.80;1.13;;;;;;;;;;5054554;28;20421;-71
2022/04/08 06:36:21;;;;;;;3.27;1.60;;;;;;;;;;5055764;28;20805;-72
2022/04/08 06:38:48;;;;;;;5.20;1.40;;;;;;;;;;5055783;28;20488;-74
2022/04/08 06:41:14;;;;;;;5.60;1.40;;;;;;;;;;5055561;28;20425;-73
2022/04/08 06:43:40;;;;;;;6.60;1.40;;;;;;;;;;5055617;28;20413;-76
2022/04/08 06:46:06;;;;;;;5.27;1.40;;;;;;;;;;5055632;28;20495;-67
2022/04/08 06:48:33;;;;;;;2.30;1.33;;;;;;;;;;5055595;28;20767;-76
2022/04/08 06:51:00;;;;;;;2.20;1.10;;;;;;;;;;5055334;28;20452;-74
2022/04/08 06:53:26;;;;;;;2.47;1.07;;;;;;;;;;5055353;28;20444;-74
2022/04/08 06:55:53;;;;;;;4.13;1.50;;;;;;;;;;5055302;28;20433;-65
2022/04/08 06:58:19;;;;;;;5.73;1.40;;;;;;;;;;5055263;28;20401;-76
2022/04/08 07:00:45;;;;;;;5.97;2.60;;;;;;;;;;5055380;28;20929;-75
2022/04/08 07:03:11;;;;;;;3.87;2.37;;;;;;;;;;5055030;28;20457;-74
2022/04/08 07:05:37;;;;;;;3.00;1.23;;;;;;;;;;5054523;28;20473;-70
2022/04/08 07:08:04;;;;;;;3.87;1.40;;;;;;;;;;5053930;28;20425;-75
2022/04/08 07:10:30;;;;;;;2.50;1.00;;;;;;;;;;5054907;28;20994;-76
2022/04/08 07:12:56;;;;;;;1.47;1.20;;;;;;;;;;5055038;28;20885;-70
2022/04/08 07:15:22;;;;;;;4.03;1.20;;;;;;;;;;5055142;28;20402;-72
2022/04/08 07:17:49;;;;;;;3.00;1.20;;;;;;;;;;5054951;28;20425;-77
2022/04/08 07:20:15;;;;;;;10.27;1.50;;;;;;;;;;5054974;28;20444;-71
2022/04/08 07:22:41;;;;;;;3.00;1.50;;;;;;;;;;5054796;28;20429;-72
2022/04/08 07:25:08;;;;;;;5.43;1.40;;;;;;;;;;5054821;28;20421;-74
2022/04/08 07:27:42;;;;;;;1.53;1.10;;;;;;;;;;5054815;28;20406;-74
2022/04/08 07:30:08;;;;;;;4.43;1.30;;;;;;;;;;5054658;28;20472;-69
2022/04/08 07:32:34;;;;;;;4.23;1.90;;;;;;;;;;5054796;28;20405;-74
2022/04/08 07:35:00;;;;;;;3.53;1.37;;;;;;;;;;5053260;28;20588;-72
2022/04/08 07:37:31;;;;;;;4.73;1.40;;;;;;;;;;5054343;28;20771;-74
2022/04/08 07:39:57;;;;;;;5.47;1.80;;;;;;;;;;5054429;28;20507;-74
2022/04/08 07:42:26;;;;;;;5.40;1.53;;;;;;;;;;5054616;28;20408;-73
2022/04/08 07:44:52;;;;;;;3.80;1.43;;;;;;;;;;5054261;28;20421;-72
2022/04/08 07:47:20;;;;;;;2.13;1.70;;;;;;;;;;5054336;28;20416;-73
2022/04/08 07:49:46;;;;;;;1.90;1.60;;;;;;;;;;5054064;28;20902;-68
2022/04/08 07:52:12;;;;;;;6.07;1.43;;;;;;;;;;5054246;28;20409;-75
2022/04/08 07:54:38;;;;;;;3.03;1.80;;;;;;;;;;5054285;28;20482;-75
2022/04/08 07:57:04;;;;;;;7.30;1.80;;;;;;;;;;5053934;28;20935;-73
2022/04/08 07:59:30;;;;;;;4.77;1.57;;;;;;;;;;5054072;28;20433;-73
2022/04/08 08:01:56;;;;;;;2.37;1.37;;;;;;;;;;5054139;28;20417;-72
2022/04/08 08:04:22;;;;;;;1.83;1.20;;;;;;;;;;5053957;28;20469;-73
2022/04/08 08:06:48;;;;;;;6.20;1.97;;;;;;;;;;5053909;28;20417;-71
2022/04/08 08:09:14;;;;;;;5.73;1.77;;;;;;;;;;5053695;28;20469;-72
2022/04/08 08:11:41;;;;;;;11.20;2.37;;;;;;;;;;5053726;28;20773;-72
2022/04/08 08:14:07;;;;;;;1.87;1.13;;;;;;;;;;5053618;28;20512;-72
2022/04/08 08:16:34;;;;;;;2.33;1.33;;;;;;;;;;5052710;28;20880;-72
2022/04/08 08:19:00;;;;;;;4.80;1.47;;;;;;;;;;5053600;28;20453;-72
2022/04/08 08:21:26;;;;;;;5.33;1.47;;;;;;;;;;5053678;28;20429;-73
2022/04/08 08:23:52;;;;;;;3.43;1.20;;;;;;;;;;5053689;28;20405;-74
2022/04/08 08:26:18;;;;;;;2.40;1.20;;;;;;;;;;5053525;28;20433;-74
2022/04/08 08:28:44;;;;;;;14.30;1.43;;;;;;;;;;5053595;28;20828;-75
2022/04/08 08:31:10;;;;;;;3.00;1.20;;;;;;;;;;5053502;28;20428;-66
2022/04/08 08:33:37;;;;;;;6.37;1.80;;;;;;;;;;5053587;28;20406;-76
2022/04/08 08:36:03;;;;;;;11.83;1.40;;;;;;;;;;5053514;28;20428;-75
2022/04/08 08:38:29;;;;;;;3.13;1.30;;;;;;;;;;5052179;28;20414;-73
2022/04/08 08:40:56;;;;;;;5.80;1.73;;;;;;;;;;5053322;28;20431;-75
2022/04/08 08:43:22;;;;;;;6.53;1.70;;;;;;;;;;5053412;28;20932;-83
2022/04/08 08:45:48;;;;;;;5.17;1.30;;;;;;;;;;5053426;28;20398;-74
2022/04/08 08:48:15;;;;;;;5.23;1.43;;;;;;;;;;5048378;28;20409;-71
2022/04/08 08:50:45;;;;;;;3.07;1.33;;;;;;;;;;5052579;28;20473;-68
2022/04/08 08:53:11;;;;;;;1.60;1.33;;;;;;;;;;5043164;28;20426;-70
2022/04/08 08:55:37;;;;;;;1.20;1.10;;;;;;;;;;5032008;28;20478;-75
2022/04/08 08:58:03;;;;;;;7.40;1.20;;;;;;;;;;5033280;28;20442;-69
2022/04/08 09:00:29;;;;;;;3.43;1.13;;;;;;;;;;5033199;28;20461;-74
2022/04/08 09:02:55;;;;;;;5.13;1.27;;;;;;;;;;5033282;28;20418;-75
2022/04/08 09:05:24;;;;;;;2.43;1.90;;;;;;;;;;5032987;28;20557;-75
2022/04/08 09:07:57;;;;;;;3.80;1.70;;;;;;;;;;5032991;28;20517;-71
2022/04/08 09:10:34;;;;;;;4.57;2.00;;;;;;;;;;5032816;28;20462;-74
2022/04/08 09:13:00;;;;;;;2.70;1.10;;;;;;;;;;5031815;28;20905;-74
2022/04/08 09:15:27;;;;;;;2.60;1.53;;;;;;;;;;5031806;28;20490;-71
2022/04/08 09:17:53;;;;;;;2.70;1.30;;;;;;;;;;5031763;28;20820;-75
2022/04/08 09:20:19;;;;;;;2.93;1.10;;;;;;;;;;5033017;28;20406;-75
2022/04/08 09:22:55;;;;;;;1.90;1.40;;;;;;;;;;5032947;28;20402;-74
2022/04/08 09:25:25;;;;;;;3.33;1.47;;;;;;;;;;5032813;28;20434;-75
2022/04/08 09:27:51;;;;;;;1.30;1.20;;;;;;;;;;5034828;28;20463;-72
2022/04/08 09:30:19;;;;;;;3.17;1.20;;;;;;;;;;5035578;28;20469;-69
2022/04/08 09:32:45;;;;;;;2.50;1.17;;;;;;;;;;5036942;28;20442;-74
2022/04/08 09:35:17;;;;;;;0.80;0.80;;;;;;;;;;5036986;28;20445;-74
2022/04/08 09:37:43;;;;;;;3.27;1.03;;;;;;;;;;5036869;28;20489;-73
2022/04/08 09:40:09;;;;;;;2.10;0.80;;;;;;;;;;5036727;28;20406;-76
2022/04/08 09:42:45;;;;;;;2.50;1.20;;;;;;;;;;5036731;28;20892;-74
2022/04/08 09:45:11;;;;;;;1.20;1.00;;;;;;;;;;5036630;28;20406;-69
2022/04/08 09:47:38;;;;;;;1.40;1.17;;;;;;;;;;5036624;28;20414;-75
2022/04/08 09:50:05;;;;;;;1.10;0.97;;;;;;;;;;5036560;28;20591;-75
2022/04/08 09:52:32;;;;;;;1.23;0.73;;;;;;;;;;5036712;28;20556;-76
2022/04/08 09:55:00;;;;;;;0.87;0.87;;;;;;;;;;5036478;28;20408;-74
2022/04/08 09:57:26;;;;;;;1.33;0.90;;;;;;;;;;5036349;28;20497;-76
2022/04/08 09:59:55;;;;;;;1.77;0.73;;;;;;;;;;5036265;28;20415;-73
2022/04/08 10:02:23;;;;;;;1.00;0.90;;;;;;;;;;5036283;28;20461;-75
2022/04/08 10:04:49;;;;;;;1.63;0.63;;;;;;;;;;5036019;28;20486;-74
2022/04/08 10:07:16;;;;;;;0.70;0.70;;;;;;;;;;5036353;28;20409;-65
2022/04/08 10:10:01;;;;;;;1.10;0.80;;;;;;;;;;5034841;28;20465;-76
2022/04/08 10:12:41;;;;;;;1.57;0.70;;;;;;;;;;5036233;28;20430;-76
2022/04/08 10:15:14;;;;;;;0.80;0.80;;;;;;;;;;5036197;28;20809;-69
2022/04/08 10:17:40;;;;;;;1.90;1.03;;;;;;;;;;5036028;28;20387;-74
2022/04/08 10:20:16;;;;;;;0.70;0.60;;;;;;;;;;5035918;28;20846;-74
2022/04/08 10:22:42;;;;;;;1.63;1.00;;;;;;;;;;5036030;28;20406;-74
2022/04/08 10:25:14;;;;;;;2.47;2.10;;;;;;;;;;5035882;28;20410;-75
2022/04/08 10:27:41;;;;;;;1.00;0.90;;;;;;;;;;5035888;28;20383;-75
2022/04/08 10:30:25;;;;;;;2.60;1.00;;;;;;;;;;5035753;28;20465;-73
2022/04/08 10:33:01;;;;;;;0.87;0.70;;;;;;;;;;5035798;28;20442;-73
2022/04/08 10:35:28;;;;;;;0.93;0.83;;;;;;;;;;5035769;28;20402;-74
2022/04/08 10:38:01;;;;;;;1.20;1.10;;;;;;;;;;5035645;28;20413;-70
2022/04/08 10:40:30;;;;;;;2.40;1.00;;;;;;;;;;5034642;28;20438;-74
2022/04/08 10:43:00;;;;;;;3.47;1.00;;;;;;;;;;5035618;28;20485;-75
2022/04/08 10:45:27;;;;;;;0.70;0.60;;;;;;;;;;5035614;28;20441;-69
2022/04/08 10:47:53;;;;;;;0.87;0.87;;;;;;;;;;5035475;28;20405;-74
2022/04/08 10:50:25;;;;;;;2.00;0.77;;;;;;;;;;5035315;28;20458;-70
2022/04/08 10:53:02;;;;;;;1.63;0.77;;;;;;;;;;5035410;28;20406;-73
2022/04/08 10:55:28;;;;;;;1.40;1.30;;;;;;;;;;5035269;28;20509;-77
2022/04/08 10:57:58;;;;;;;1.90;1.30;;;;;;;;;;5035070;28;20530;-78
2022/04/08 11:00:25;;;;;;;0.70;0.70;;;;;;;;;;5035059;28;20976;-78
2022/04/08 11:02:53;;;;;;;0.80;0.80;;;;;;;;;;5035200;28;20426;-78
2022/04/08 11:05:20;;;;;;;1.13;0.90;;;;;;;;;;5035029;28;20956;-77
2022/04/08 11:07:48;;;;;;;4.13;1.20;;;;;;;;;;5035366;28;20414;-77
2022/04/08 11:10:21;;;;;;;1.30;1.20;;;;;;;;;;5035048;28;20561;-76
2022/04/08 11:12:51;;;;;;;1.00;0.90;;;;;;;;;;5035173;28;20563;-77
2022/04/08 11:15:21;;;;;;;1.67;0.90;;;;;;;;;;5035187;28;20431;-78
2022/04/08 11:17:47;;;;;;;1.10;1.00;;;;;;;;;;5035071;28;20446;-76
2022/04/08 11:20:14;;;;;;;1.23;1.13;;;;;;;;;;5033681;28;20556;-78
2022/04/08 11:22:40;;;;;;;3.43;2.00;;;;;;;;;;5034901;28;20403;-79
2022/04/08 11:25:07;;;;;;;5.73;1.43;;;;;;;;;;5034772;28;20409;-78
2022/04/08 11:27:33;;;;;;;1.43;1.10;;;;;;;;;;5035020;28;20403;-78
2022/04/08 11:29:59;;;;;;;2.13;1.90;;;;;;;;;;5034789;28;20531;-77
2022/04/08 11:32:34;;;;;;;2.20;1.27;;;;;;;;;;5034969;28;20469;-78
2022/04/08 11:35:10;;;;;;;0.80;0.80;;;;;;;;;;5034881;28;20487;-77
2022/04/08 11:37:36;;;;;;;5.17;2.83;;;;;;;;;;5032004;28;20468;-72
2022/04/08 11:40:03;;;;;;;2.00;1.17;;;;;;;;;;5034672;28;20406;-75
2022/04/08 11:42:29;;;;;;;1.60;1.00;;;;;;;;;;5034739;28;20470;-78
2022/04/08 11:44:56;;;;;;;1.40;1.30;;;;;;;;;;5034497;28;20411;-77
2022/04/08 11:47:30;;;;;;;1.47;0.90;;;;;;;;;;5034607;28;20446;-70
2022/04/08 11:50:04;;;;;;;2.47;1.10;;;;;;;;;;5034257;28;20472;-77
2022/04/08 11:52:30;;;;;;;1.03;0.83;;;;;;;;;;5034519;28;20418;-78
2022/04/08 11:55:02;;;;;;;1.10;1.00;;;;;;;;;;5034311;28;20755;-77
2022/04/08 11:57:31;;;;;;;1.70;1.20;;;;;;;;;;5034341;28;20429;-77
2022/04/08 11:59:58;;;;;;;1.40;1.30;;;;;;;;;;5034256;28;20407;-77
2022/04/08 12:02:24;;;;;;;1.40;1.30;;;;;;;;;;5034143;28;20426;-77
2022/04/08 12:04:51;;;;;;;1.20;1.10;;;;;;;;;;5033923;28;20793;-77
2022/04/08 12:07:24;;;;;;;1.97;1.23;;;;;;;;;;5034095;28;20550;-76
2022/04/08 12:09:51;;;;;;;2.73;1.57;;;;;;;;;;5033922;28;20467;-76
2022/04/08 12:12:27;;;;;;;1.43;1.30;;;;;;;;;;5034169;28;20488;-77
2022/04/08 12:14:53;;;;;;;1.53;1.43;;;;;;;;;;5034069;28;20408;-77
2022/04/08 12:17:20;;;;;;;2.93;1.50;;;;;;;;;;5033853;28;20401;-75
2022/04/08 12:19:51;;;;;;;2.57;1.40;;;;;;;;;;5033808;28;20419;-77
2022/04/08 12:22:17;;;;;;;1.20;1.07;;;;;;;;;;5033992;28;20418;-78
2022/04/08 12:24:44;;;;;;;3.97;1.60;;;;;;;;;;5033759;28;20399;-75
2022/04/08 12:27:13;;;;;;;1.73;1.63;;;;;;;;;;5033726;28;20424;-72
2022/04/08 12:29:40;;;;;;;1.57;1.47;;;;;;;;;;5033590;28;20509;-79
2022/04/08 12:32:12;;;;;;;2.20;1.83;;;;;;;;;;5033733;28;20406;-75
2022/04/08 12:34:39;;;;;;;2.07;1.83;;;;;;;;;;5033799;28;20407;-76
2022/04/08 12:37:05;;;;;;;2.10;1.90;;;;;;;;;;5033688;28;20418;-75
2022/04/08 12:39:31;;;;;;;2.03;1.90;;;;;;;;;;5033579;28;20404;-78
2022/04/08 12:42:00;;;;;;;2.10;2.00;;;;;;;;;;5032269;28;20509;-77
2022/04/08 12:44:26;;;;;;;2.70;2.50;;;;;;;;;;5033494;28;20902;-81
2022/04/08 12:46:54;;;;;;;2.80;2.50;;;;;;;;;;5033574;28;20480;-80
2022/04/08 12:49:20;;;;;;;2.10;1.80;;;;;;;;;;5033296;28;20494;-71
2022/04/08 12:51:46;;;;;;;1.93;1.70;;;;;;;;;;5033629;28;20967;-78
2022/04/08 12:54:12;;;;;;;1.57;1.47;;;;;;;;;;5040908;28;20438;-79
2022/04/08 12:56:41;;;;;;;2.30;1.90;;;;;;;;;;5032901;28;20426;-80
2022/04/08 12:59:07;;;;;;;1.87;1.77;;;;;;;;;;5032632;28;20545;-69
2022/04/08 13:01:34;;;;;;;2.37;2.17;;;;;;;;;;5032090;28;20429;-75
2022/04/08 13:04:00;;;;;;;2.53;2.07;;;;;;;;;;5031739;28;21023;-74
2022/04/08 13:06:26;;;;;;;2.73;2.10;;;;;;;;;;5031965;28;20422;-82
2022/04/08 13:08:52;;;;;;;1.77;1.67;;;;;;;;;;5033212;28;20584;-81
2022/04/08 13:11:18;;;;;;;2.27;2.10;;;;;;;;;;5033257;28;20470;-82
2022/04/08 13:13:44;;;;;;;3.17;1.90;;;;;;;;;;5033155;28;20785;-82
2022/04/08 13:16:11;;;;;;;2.50;1.97;;;;;;;;;;5033189;28;20410;-77
2022/04/08 13:18:37;;;;;;;1.73;1.63;;;;;;;;;;5033076;28;20398;-81
2022/04/08 13:21:04;;;;;;;1.70;1.60;;;;;;;;;;5031936;28;20472;-73
2022/04/08 13:23:30;;;;;;;2.23;1.60;;;;;;;;;;5033058;28;20885;-79
2022/04/08 13:25:56;;;;;;;1.23;1.13;;;;;;;;;;5032839;28;20472;-76
2022/04/08 13:28:22;;;;;;;1.50;1.40;;;;;;;;;;5031678;28;20427;-79
2022/04/08 13:30:48;;;;;;;1.57;1.47;;;;;;;;;;5032872;28;20983;-81
2022/04/08 13:33:14;;;;;;;4.50;2.47;;;;;;;;;;5031609;28;20500;-68
2022/04/08 13:35:40;;;;;;;2.03;1.60;;;;;;;;;;5032821;28;20909;-77
2022/04/08 13:38:06;;;;;;;1.60;1.50;;;;;;;;;;5032838;28;20422;-77
2022/04/08 13:40:32;;;;;;;2.13;1.93;;;;;;;;;;5032814;28;20905;-81
2022/04/08 13:43:00;;;;;;;3.00;2.20;;;;;;;;;;5032920;28;20489;-72
2022/04/08 13:45:26;;;;;;;2.40;2.20;;;;;;;;;;5032696;28;20776;-80
2022/04/08 13:47:52;;;;;;;2.23;2.03;;;;;;;;;;5032689;28;20901;-80
2022/04/08 13:50:18;;;;;;;2.43;2.20;;;;;;;;;;5032530;28;20469;-83
2022/04/08 13:52:44;;;;;;;3.33;2.23;;;;;;;;;;5032808;28;20421;-82
2022/04/08 13:55:10;;;;;;;3.17;2.63;;;;;;;;;;5032516;28;20536;-78
2022/04/08 13:57:36;;;;;;;2.20;2.10;;;;;;;;;;5032614;28;20422;-70
2022/04/08 14:00:04;;;;;;;2.80;2.60;;;;;;;;;;5031481;28;20939;-78
2022/04/08 14:02:31;;;;;;;3.03;2.77;;;;;;;;;;5032759;28;20414;-84
2022/04/08 14:04:57;;;;;;;2.80;2.30;;;;;;;;;;5032429;28;20470;-81
2022/04/08 14:07:23;;;;;;;2.33;2.13;;;;;;;;;;5032710;28;20414;-81
2022/04/08 14:09:49;;;;;;;2.83;2.33;;;;;;;;;;5031256;28;20477;-82
2022/04/08 14:12:15;;;;;;;2.70;2.50;;;;;;;;;;5032637;28;20511;-82
2022/04/08 14:14:41;;;;;;;4.97;3.13;;;;;;;;;;5033907;28;20426;-78
2022/04/08 14:17:07;;;;;;;3.23;2.93;;;;;;;;;;5036069;28;20419;-83
2022/04/08 14:19:34;;;;;;;3.43;3.13;;;;;;;;;;5036296;28;20488;-76
2022/04/08 14:22:00;;;;;;;3.60;3.30;;;;;;;;;;5036435;28;20495;-82
2022/04/08 14:24:26;;;;;;;4.33;3.07;;;;;;;;;;5036559;28;20452;-76
2022/04/08 14:26:52;;;;;;;3.50;3.20;;;;;;;;;;5036529;28;20430;-84
2022/04/08 14:29:18;;;;;;;4.10;3.70;;;;;;;;;;5036004;28;20508;-74
2022/04/08 14:31:45;;;;;;;4.10;3.80;;;;;;;;;;5035996;28;20415;-78
2022/04/08 14:34:11;;;;;;;3.07;2.87;;;;;;;;;;5035957;28;20422;-82
2022/04/08 14:36:40;;;;;;;3.03;2.70;;;;;;;;;;5035878;28;20398;-77
2022/04/08 14:39:06;;;;;;;3.80;3.10;;;;;;;;;;5034432;28;20780;-80
2022/04/08 14:41:32;;;;;;;2.83;2.63;;;;;;;;;;5035756;28;20750;-81